Àlex Marín

Olheiro - Villarreal
9 Dez 2027
Quinta-feira
Processo

Personalidade

Adaptabilidade (12) Ambição (10) Controvérsia (1) Lealdade (11) Pressão (20) Profissionalismo (20) Espírito Esportivo (10) Temperamento (7)

Perfil

Estilo de Treinamento Democrático
Licença Continental A
Determinação 6
Gestão de Pessoas 9
Motivação 15
Disciplina 8
Satisfação no Trabalho
59%
Fadiga
0%
Função Olheiro
Salário 19.0K p/s
Contrato 14.03.2028

Desempenho

Comportamento Bom
Eficácia do Treinamento
23%
Desenvolvimento do Jogador
35%
Prevenção de Lesões
65%
Implementação Tática
65%

Eventos Recentes

Participou de uma reunião de recrutamento agora
Participou de uma reunião de recrutamento agora
Participou de uma reunião de recrutamento 7d atrás
Participou de uma reunião de recrutamento 7d atrás
Observou uma partida 7d atrás
Observou uma partida 7d atrás
Observou uma partida 7d atrás
Observou uma partida 7d atrás

Monitorando agora

101
Jogador Clube Status Habilidade Confiança Observado Última observação Último voto
Williams Mothiba Black Aces Ativo 81 / 99 40% 1 05.07.2027 -
Majid Vafaei Rah Ahan Ativo 114 / 108 40% 1 05.07.2027 -
Rodrigo Ely Almería Ativo 123 / 119 51% 1 21.06.2027 -
Christos Mouzakitis Hull City Ativo 133 / 133 40% 5 29.05.2027 -
William Gomes Porto Ativo 133 / 147 40% 2 24.05.2027 -
Matías Gómez Granada Ativo 108 / 126 40% 1 24.05.2027 -
Kevin Vazquez Cruz Azul Ativo 137 / 135 40% 8 22.05.2027 -
Ibrahim Maza Bayer Leverkusen Ativo 146 / 145 40% 1 22.05.2027 -
Senny Mayulu Paris Saint-Germain Ativo 135 / 146 40% 1 19.05.2027 -
Yussif Saidu Zaragoza Ativo 135 / 124 40% 1 19.05.2027 -
Jan Virgili Club Brugge Ativo 137 / 132 40% 4 18.05.2027 -
Caleb Yirenkyi Coventry City Ativo 136 / 139 40% 4 18.05.2027 -
Shea Lacey Wolverhampton Ativo 115 / 132 40% 1 18.05.2027 -
Zane Albarus Cambridge United Ativo 105 / 102 40% 1 18.05.2027 -
David Valencia Alianza Petrolera Ativo 138 / 137 40% 1 17.05.2027 -
Sascha Britschgi Padova Ativo 128 / 123 40% 1 17.05.2027 -
Lucas Høgsberg RC Strasbourg Ativo 136 / 143 40% 1 15.05.2027 -
Jofre Torrents Ajax Ativo 124 / 128 40% 1 14.05.2027 -
Joel McGregor Swindon Town Ativo 85 / 100 40% 1 14.05.2027 -
Jorrel Hato Chelsea Ativo 143 / 151 40% 4 10.05.2027 -
Yusi Alavés Ativo 142 / 131 40% 1 10.05.2027 -
Gianluca Prestianni Benfica Ativo 145 / 135 40% 2 09.05.2027 -
Oscar Schwartau Norwich City Ativo 111 / 124 40% 2 09.05.2027 -
Lander Astiazarán Real Sociedad Ativo 105 / 111 67% 2 08.05.2027 Observar
Josh King Chelsea Ativo 147 / 149 40% 1 06.05.2027 -
Noah Nartey Olympique Lyonnais Ativo 140 / 134 40% 1 06.05.2027 -
Othmane Maamma Watford Ativo 125 / 125 40% 3 05.05.2027 -
David Mella Deportivo La Coruña Ativo 142 / 130 40% 3 30.04.2027 -
Rodrigo Mora AS Roma Ativo 136 / 145 40% 2 29.04.2027 -
Rayan Bournemouth Ativo 127 / 141 40% 3 28.04.2027 -
Jayden Addai Como Ativo 145 / 137 40% 2 26.04.2027 -
João Simões Sporting CP Ativo 125 / 141 40% 1 25.04.2027 -
Mfundo Vilakazi Kaizer Chiefs Ativo 116 / 126 40% 1 25.04.2027 -
Jon Garro Real Sociedad Ativo 87 / 90 67% 1 24.04.2027 Observar
Warren Zaïre-Emery Paris Saint-Germain Ativo 153 / 161 40% 2 21.04.2027 -
Kazunari Kita Real Sociedad Ativo 94 / 104 40% 1 21.04.2027 -
Jonás Luna Santa Clara Ativo 107 / 122 40% 1 19.04.2027 -
Yan Diomandé Real Madrid Ativo 155 / 154 40% 3 18.04.2027 Observar
Izan Merino Málaga Ativo 116 / 130 40% 1 18.04.2027 -
Olívio Tomé Benfica Ativo 112 / 115 40% 3 16.04.2027 -
Jesús Rodríguez Como Ativo 155 / 144 40% 1 16.04.2027 -
Matheus Gonçalves Al-Ahli Ativo 138 / 133 40% 2 15.04.2027 -
Luís Guilherme Sporting CP Ativo 133 / 133 40% 1 11.04.2027 -
Endrick Real Madrid Ativo 135 / 150 40% 1 08.04.2027 -
Cyriaque Irié VfL Wolfsburg Ativo 128 / 128 40% 1 08.04.2027 -
Samir El Mourabet RC Strasbourg Ativo 118 / 130 40% 1 04.04.2027 -
Nico O'Reilly Manchester City Ativo 161 / 155 40% 3 10.03.2027 -
Assane Diao Lazio Ativo 156 / 148 40% 1 04.03.2027 -
Malick Fofana Sunderland Ativo 136 / 144 40% 1 03.03.2027 -
Pedri Barcelona Ativo 178 / 174 40% 11 27.12.2026 -
Jan Oblak Atlético Madrid Ativo 167 / 163 40% 2 25.12.2026 -
Flavien-Enzo Boyomo Osasuna Ativo 143 / 149 40% 1 25.12.2026 -
Aitor Paredes Athletic Bilbao Ativo 148 / 151 40% 1 25.12.2026 -
Gianluigi Donnarumma Manchester City Ativo 165 / 170 40% 1 25.12.2026 -
José Ángel Carmona Sevilla Ativo 155 / 151 40% 3 21.12.2026 -
Marc Guéhi Manchester City Ativo 164 / 169 40% 1 21.12.2026 -
Fran García Betis Ativo 147 / 151 40% 1 20.12.2026 -
Erick Reyes Toluca Negociando 123 / 148 40% 4 19.12.2026 -
Raúl Rangel Sporting CP Ativo 137 / 138 40% 2 18.12.2026 -
Álvaro Valles Betis Ativo 156 / 142 40% 1 17.12.2026 -
Declan Rice Arsenal Ativo 191 / 189 40% 4 16.12.2026 -
Aurélien Tchouaméni Real Madrid Ativo 163 / 166 40% 3 16.12.2026 -
Wesley Fofana Chelsea Ativo 153 / 162 40% 2 14.12.2026 -
Gavi Barcelona Ativo 168 / 167 40% 3 11.12.2026 -
Julen Agirrezabala Racing Santander Ativo 147 / 146 40% 1 11.12.2026 -
Sandro Tonali Tottenham Ativo 169 / 170 40% 4 10.12.2026 -
Martín Zubimendi Arsenal Ativo 156 / 161 40% 1 10.12.2026 -
David Soria Getafe Ativo 137 / 138 40% 2 07.12.2026 -
Max O'Leary West Bromwich Albion Ativo 127 / 124 40% 1 06.12.2026 -
Unai Simón Athletic Bilbao Ativo 150 / 162 40% 1 05.12.2026 -
Tomás Marchiori Vélez Ativo 133 / 132 40% 2 02.12.2026 -
Alfonso Herrero Málaga Ativo 126 / 127 40% 3 02.12.2026 -
Alexis Mac Allister Liverpool Ativo 171 / 159 40% 3 27.11.2026 -
Conor Gallagher Tottenham Ativo 151 / 153 40% 2 25.11.2026 -
Antonio Sivera Alavés Ativo 154 / 145 40% 2 23.11.2026 -
Facundo Cambeses Racing Club Ativo 127 / 132 40% 2 21.11.2026 -
Senne Lammens Manchester United Ativo 153 / 152 40% 2 18.11.2026 -
David Raya Arsenal Ativo 153 / 162 40% 1 17.11.2026 -
Micky van de Ven Tottenham Ativo 164 / 153 40% 1 10.11.2026 -
Jorge Soto Aguilas Doradas Ativo 110 / 122 40% 1 10.11.2026 -
Eduardo Camavinga Real Madrid Ativo 162 / 166 40% 1 08.11.2026 -
Luis Ingolotti Atlético Tucumán Ativo 121 / 122 40% 1 07.11.2026 -
Enzo Fernández Manchester City Ativo 167 / 171 40% 3 04.11.2026 -
Óscar Mingueza Crystal Palace Ativo 137 / 146 40% 2 28.10.2026 -
Adam Wharton Crystal Palace Ativo 156 / 158 40% 1 28.10.2026 -
Nico González Newcastle United Ativo 157 / 158 40% 6 27.10.2026 -
Jules Koundé Barcelona Ativo 159 / 154 40% 1 27.10.2026 -
Matthijs de Ligt Manchester United Ativo 151 / 156 40% 3 26.10.2026 -
Jan Paul van Hecke Tottenham Ativo 153 / 160 40% 5 25.10.2026 -
Vitinha Paris Saint-Germain Ativo 191 / 178 40% 2 25.10.2026 -
Ryan Gravenberch Liverpool Ativo 167 / 156 40% 1 23.10.2026 -
Moisés Caicedo Chelsea Ativo 160 / 166 40% 1 22.10.2026 -
Amadou Onana Aston Villa Ativo 162 / 158 40% 1 14.10.2026 -
Sven Botman Newcastle United Ativo 170 / 156 40% 1 08.10.2026 -
Morten Hjulmand Atlético Madrid Ativo 157 / 152 40% 2 06.10.2026 -
Johnny Cardoso Atlético Madrid Ativo 151 / 158 40% 2 02.10.2026 -
Dani Vivian Athletic Bilbao Ativo 156 / 151 40% 1 01.10.2026 -
Tino Livramento Newcastle United Ativo 141 / 152 40% 1 30.09.2026 -
Hector Ramirez Newcastle United Ativo 140 / 151 40% 1 26.09.2026 -
William Saliba Arsenal Ativo 176 / 175 40% 1 26.09.2026 -
Levi Colwill Chelsea Ativo 158 / 158 40% 1 18.09.2026 -